Time;durP1;ratioP1;P1;durP2;ratioP2;P2;SDS_P1;SDS_P2;PMS_P1;PMS_P2;Temp;Humidity;BMP_temperature;BMP_pressure;BME280_temperature;BME280_humidity;BME280_pressure;Samples;Min_cycle;Max_cycle;Signal;HPM_P1;HPM_P2
2022/09/06 00:02:14;;;;;;;4.53;3.05;;;;;;;21.72;65.03;101447.38;5039030;28;20275;-79
2022/09/06 00:04:39;;;;;;;5.88;3.05;;;;;;;21.55;65.84;101456.81;5056533;28;20044;-79
2022/09/06 00:07:05;;;;;;;5.53;3.22;;;;;;;21.40;65.93;101479.56;5056497;28;20037;-79
2022/09/06 00:09:30;;;;;;;6.50;3.33;;;;;;;21.35;67.08;101492.25;5038478;28;20036;-79
2022/09/06 00:11:55;;;;;;;5.28;3.08;;;;;;;21.18;68.03;101504.22;5056417;28;20033;-79
2022/09/06 00:14:21;;;;;;;7.35;3.45;;;;;;;20.87;69.29;101525.53;5056362;28;20041;-78
2022/09/06 00:16:46;;;;;;;7.05;3.80;;;;;;;20.64;70.74;101568.06;5037968;28;20043;-78
2022/09/06 00:19:11;;;;;;;4.82;3.60;;;;;;;20.48;71.59;101591.66;5056011;28;20458;-78
2022/09/06 00:21:37;;;;;;;7.30;3.90;;;;;;;20.22;72.87;101598.34;5055940;28;20033;-78
2022/09/06 00:24:02;;;;;;;6.05;3.88;;;;;;;20.17;72.19;101597.53;5056088;28;20374;-78
2022/09/06 00:26:28;;;;;;;8.73;3.80;;;;;;;20.07;73.59;101613.78;5055077;28;20478;-79
2022/09/06 00:28:53;;;;;;;5.45;3.60;;;;;;;20.02;73.80;101616.56;5056395;28;20036;-79
2022/09/06 00:31:22;;;;;;;5.82;3.90;;;;;;;20.11;73.14;101612.84;5055834;28;20467;-79
2022/09/06 00:33:47;;;;;;;8.63;4.00;;;;;;;20.30;71.66;101606.25;5055476;28;20470;-79
2022/09/06 00:36:13;;;;;;;5.55;3.60;;;;;;;20.32;71.15;101615.16;5055673;28;20039;-79
2022/09/06 00:38:40;;;;;;;11.20;3.55;;;;;;;20.44;70.60;101614.06;5037622;28;20039;-79
2022/09/06 00:41:07;;;;;;;9.30;4.15;;;;;;;20.54;71.23;101588.84;5055912;28;20534;-79
2022/09/06 00:43:33;;;;;;;6.05;4.07;;;;;;;20.78;70.13;101605.41;5055472;28;20039;-79
2022/09/06 00:46:00;;;;;;;5.20;4.03;;;;;;;20.87;70.40;101603.44;5055500;28;20033;-79
2022/09/06 00:48:25;;;;;;;6.97;3.90;;;;;;;21.05;68.94;101601.28;5037569;28;20459;-79
2022/09/06 00:50:55;;;;;;;7.05;4.20;;;;;;;21.06;69.47;101597.69;5055162;28;20116;-79
2022/09/06 00:53:20;;;;;;;8.27;4.30;;;;;;;20.99;70.08;101586.19;5055388;28;20079;-79
2022/09/06 00:55:47;;;;;;;7.90;4.50;;;;;;;21.00;69.68;101575.41;5055302;28;20045;-79
2022/09/06 00:58:12;;;;;;;8.18;4.20;;;;;;;21.15;68.04;101579.53;5055259;28;20025;-79
2022/09/06 01:00:37;;;;;;;5.97;4.10;;;;;;;21.29;68.02;101564.94;5055270;28;20037;-79
2022/09/06 01:03:04;;;;;;;5.95;3.90;;;;;;;21.38;68.08;101562.97;5055200;28;20533;-79
2022/09/06 01:06:02;;;;;;;7.50;4.22;;;;;;;21.39;67.21;101562.03;5037328;28;20029;-79
2022/09/06 01:08:36;;;;;;;5.25;4.05;;;;;;;21.34;68.42;101558.56;5012674;28;20076;-79
2022/09/06 01:11:47;;;;;;;6.35;4.15;;;;;;;21.43;67.00;101562.84;5055620;28;20031;-79
2022/09/06 01:14:46;;;;;;;7.78;3.92;;;;;;;21.38;68.18;101551.34;5054694;28;20446;-79
2022/09/06 01:17:34;;;;;;;7.22;4.00;;;;;;;21.28;69.61;101539.84;5043755;28;20049;-80
2022/09/06 01:20:40;;;;;;;4.72;3.95;;;;;;;21.30;68.91;101531.75;5055525;28;20029;-79
2022/09/06 01:23:29;;;;;;;6.38;4.35;;;;;;;21.26;69.18;101518.38;5052645;28;20044;-79
2022/09/06 01:26:11;;;;;;;7.00;4.30;;;;;;;21.14;69.23;101523.16;5054795;28;20490;-79
2022/09/06 01:28:45;;;;;;;9.95;4.55;;;;;;;21.12;69.36;101511.56;5054749;28;20561;-79
2022/09/06 01:31:31;;;;;;;7.38;4.13;;;;;;;21.06;70.22;101503.63;5054909;28;20048;-79
2022/09/06 01:34:02;;;;;;;5.72;3.75;;;;;;;21.00;70.95;101494.78;5055149;28;20092;-79
2022/09/06 01:36:39;;;;;;;5.35;3.80;;;;;;;20.95;70.96;101468.94;5054322;28;20044;-79
2022/09/06 01:39:04;;;;;;;6.30;4.32;;;;;;;20.87;71.79;101447.63;5053554;28;20029;-79
2022/09/06 01:41:31;;;;;;;7.97;4.10;;;;;;;20.85;71.32;101433.31;5036556;28;20052;-80
2022/09/06 01:43:58;;;;;;;6.75;4.57;;;;;;;20.78;70.79;101425.44;5036428;28;20032;-80
2022/09/06 01:46:38;;;;;;;7.07;4.55;;;;;;;20.69;70.75;101411.31;5054094;28;20048;-79
2022/09/06 01:49:06;;;;;;;6.85;4.70;;;;;;;20.49;72.32;101406.34;5054899;28;20028;-79
2022/09/06 01:52:02;;;;;;;6.28;4.43;;;;;;;20.55;71.02;101407.13;5054048;28;20047;-79
2022/09/06 01:54:47;;;;;;;5.85;4.43;;;;;;;20.44;71.99;101396.59;5054186;28;20048;-79
2022/09/06 01:57:40;;;;;;;6.50;4.35;;;;;;;20.42;71.65;101377.81;5054609;28;20040;-79
2022/09/06 02:00:17;;;;;;;6.30;4.57;;;;;;;20.38;71.90;101373.44;5054455;28;20497;-79
2022/09/06 02:02:42;;;;;;;6.60;4.70;;;;;;;20.39;71.94;101358.25;5054071;28;20458;-80
2022/09/06 02:05:23;;;;;;;6.47;4.68;;;;;;;20.41;71.62;101353.72;5053923;28;20095;-80
2022/09/06 02:07:54;;;;;;;7.50;4.60;;;;;;;20.33;72.05;101353.88;5053721;28;20056;-80
2022/09/06 02:10:41;;;;;;;9.65;4.60;;;;;;;20.30;71.83;101339.63;5053693;28;20100;-80
2022/09/06 02:13:09;;;;;;;9.18;4.50;;;;;;;20.22;72.30;101329.97;5053863;28;20082;-79
2022/09/06 02:15:41;;;;;;;9.20;4.63;;;;;;;20.10;72.94;101332.91;5053882;28;20037;-79
2022/09/06 02:18:18;;;;;;;6.68;4.30;;;;;;;20.12;71.93;101387.41;5054107;28;20033;-79
2022/09/06 02:20:49;;;;;;;9.40;4.60;;;;;;;20.07;73.08;101413.44;5035971;28;20033;-79
2022/09/06 02:23:17;;;;;;;7.57;4.65;;;;;;;20.01;74.30;101395.69;5053665;28;20422;-79
2022/09/06 02:25:51;;;;;;;7.28;4.82;;;;;;;19.94;74.07;101363.63;5053719;28;20466;-79
2022/09/06 02:28:16;;;;;;;8.00;5.20;;;;;;;19.82;73.81;101391.56;5035846;28;20481;-79
2022/09/06 02:30:47;;;;;;;6.60;4.50;;;;;;;19.72;75.24;101396.22;5036272;28;20120;-79
2022/09/06 02:33:18;;;;;;;9.45;4.82;;;;;;;19.88;74.26;101415.59;5054257;28;20451;-79
2022/09/06 02:35:45;;;;;;;6.40;4.43;;;;;;;20.09;73.04;101411.63;5036607;28;20370;-79
2022/09/06 02:38:11;;;;;;;5.80;4.43;;;;;;;20.17;73.33;101398.97;5035687;28;20052;-79
2022/09/06 02:40:37;;;;;;;6.75;4.97;;;;;;;20.20;73.51;101388.13;5054066;28;20040;-79
2022/09/06 02:43:03;;;;;;;6.57;4.80;;;;;;;20.25;72.97;101378.19;5054156;28;20033;-79
2022/09/06 02:45:28;;;;;;;8.32;4.93;;;;;;;20.29;72.94;101383.50;5053802;28;20025;-79
2022/09/06 02:47:53;;;;;;;7.65;4.68;;;;;;;20.24;73.08;101392.53;5053705;28;20028;-79
2022/09/06 02:50:19;;;;;;;8.43;5.10;;;;;;;20.27;73.05;101388.91;5055407;28;20033;-79
2022/09/06 02:52:44;;;;;;;6.28;4.72;;;;;;;20.37;72.53;101393.16;5058165;28;20056;-79
2022/09/06 02:55:10;;;;;;;10.80;4.82;;;;;;;20.37;72.42;101395.84;5057306;28;20032;-79
2022/09/06 02:57:35;;;;;;;8.23;5.18;;;;;;;20.29;72.90;101384.38;5058102;28;20029;-79
2022/09/06 03:00:03;;;;;;;7.72;4.88;;;;;;;20.30;72.81;101388.84;5040274;28;20115;-79
2022/09/06 03:02:28;;;;;;;6.82;4.85;;;;;;;20.31;72.57;101389.72;5040078;28;20031;-79
2022/09/06 03:04:53;;;;;;;7.05;5.03;;;;;;;20.31;72.06;101393.28;5057319;28;20079;-79
2022/09/06 03:07:19;;;;;;;13.07;5.10;;;;;;;20.40;71.53;101392.22;5057309;28;20458;-79
2022/09/06 03:09:44;;;;;;;7.95;4.90;;;;;;;20.46;71.42;101400.13;5057210;28;20447;-79
2022/09/06 03:12:09;;;;;;;6.68;4.80;;;;;;;20.56;71.04;101398.19;5057258;28;20420;-79
2022/09/06 03:14:35;;;;;;;6.82;5.13;;;;;;;20.64;70.86;101394.41;5039950;28;20040;-79
2022/09/06 03:17:02;;;;;;;7.57;4.72;;;;;;;20.64;71.01;101394.41;5023084;28;20021;-79
2022/09/06 03:19:27;;;;;;;8.95;4.90;;;;;;;20.69;70.57;101392.50;5057134;28;20033;-79
2022/09/06 03:21:53;;;;;;;6.45;4.97;;;;;;;20.74;70.06;101395.09;5056794;28;20032;-79
2022/09/06 03:24:18;;;;;;;6.80;4.78;;;;;;;20.71;69.62;101379.91;5056964;28;20532;-79
2022/09/06 03:26:43;;;;;;;9.25;5.22;;;;;;;20.62;70.36;101385.50;5039247;28;20032;-79
2022/09/06 03:29:09;;;;;;;7.97;5.03;;;;;;;20.44;70.73;101378.69;5057233;28;20037;-79
2022/09/06 03:31:34;;;;;;;7.68;5.07;;;;;;;20.44;70.38;101375.13;5057421;28;20470;-79
2022/09/06 03:33:59;;;;;;;6.53;4.82;;;;;;;20.46;70.56;101382.22;5038946;28;20033;-79
2022/09/06 03:36:25;;;;;;;6.10;4.93;;;;;;;20.29;71.47;101384.38;5038881;28;20056;-79
2022/09/06 03:38:52;;;;;;;6.68;5.10;;;;;;;20.13;71.50;101385.63;5056970;28;20356;-79
2022/09/06 03:41:18;;;;;;;7.25;4.65;;;;;;;20.06;71.75;101386.66;5056687;28;20044;-79
2022/09/06 03:43:43;;;;;;;5.95;4.78;;;;;;;19.96;71.88;101383.28;5038742;28;20029;-79
2022/09/06 03:46:08;;;;;;;6.82;5.00;;;;;;;19.96;72.31;101392.22;5057475;28;20037;-79
2022/09/06 03:48:34;;;;;;;6.57;5.20;;;;;;;20.05;71.99;101393.81;5056620;28;20039;-79
2022/09/06 03:51:00;;;;;;;9.43;5.22;;;;;;;20.14;71.24;101392.75;5056856;28;20037;-79
2022/09/06 03:53:27;;;;;;;8.98;5.22;;;;;;;20.23;71.09;101400.63;5056165;28;20084;-79
2022/09/06 03:55:53;;;;;;;10.75;5.47;;;;;;;20.13;71.28;101401.72;5056551;28;20111;-79
2022/09/06 03:58:21;;;;;;;9.70;5.45;;;;;;;20.13;70.99;101399.94;5056416;28;20041;-79
2022/09/06 04:00:47;;;;;;;7.50;4.88;;;;;;;20.13;71.05;101401.72;5055836;28;20025;-79
2022/09/06 04:03:12;;;;;;;7.03;5.20;;;;;;;20.07;70.94;101399.16;5055883;28;20102;-79
2022/09/06 04:05:38;;;;;;;6.80;4.95;;;;;;;20.13;70.64;101407.09;5056204;28;20379;-79
2022/09/06 04:08:04;;;;;;;7.28;4.80;;;;;;;19.93;70.66;101410.16;5039190;28;20421;-79
2022/09/06 04:10:31;;;;;;;8.82;5.03;;;;;;;19.92;70.96;101403.91;5038519;28;20036;-79
2022/09/06 04:12:56;;;;;;;9.18;5.18;;;;;;;19.94;70.90;101394.03;5056235;28;20028;-79
2022/09/06 04:15:21;;;;;;;7.22;4.95;;;;;;;19.97;70.14;101401.13;5056103;28;20086;-79
2022/09/06 04:17:47;;;;;;;6.47;5.18;;;;;;;19.92;70.29;101401.22;5056088;28;20072;-79
2022/09/06 04:20:13;;;;;;;8.45;5.20;;;;;;;19.72;71.96;101408.75;5056052;28;20381;-79
2022/09/06 04:22:39;;;;;;;8.40;5.35;;;;;;;19.57;71.96;101414.34;5055711;28;20033;-79
2022/09/06 04:25:05;;;;;;;6.85;5.38;;;;;;;19.50;72.49;101417.13;5055884;28;20075;-79
2022/09/06 04:27:31;;;;;;;7.97;5.45;;;;;;;19.44;72.61;101421.69;5037925;28;20067;-79
2022/09/06 04:29:56;;;;;;;7.13;5.53;;;;;;;19.40;72.53;101420.91;5038681;28;20033;-79
2022/09/06 04:32:21;;;;;;;8.30;5.47;;;;;;;19.32;72.72;101419.25;5055785;28;20032;-79
2022/09/06 04:34:47;;;;;;;6.45;5.20;;;;;;;19.21;73.43;101414.94;5055443;28;20075;-79
2022/09/06 04:37:16;;;;;;;9.70;5.72;;;;;;;19.18;73.67;101420.31;5056244;28;20029;-79
2022/09/06 04:39:42;;;;;;;7.72;5.60;;;;;;;19.16;73.79;101414.13;5055285;28;20029;-79
2022/09/06 04:42:08;;;;;;;7.68;5.55;;;;;;;19.26;72.98;101412.16;5055606;28;20040;-79
2022/09/06 04:44:33;;;;;;;8.13;5.65;;;;;;;19.23;73.62;101409.56;5055760;28;20033;-79
2022/09/06 04:47:05;;;;;;;7.50;5.65;;;;;;;19.26;73.08;101422.88;5037481;28;20041;-79
2022/09/06 04:49:30;;;;;;;8.82;6.30;;;;;;;19.18;73.58;101420.31;5056041;28;20025;-78
2022/09/06 04:51:56;;;;;;;8.32;5.82;;;;;;;19.16;73.52;101426.63;5055668;28;20147;-79
2022/09/06 04:54:21;;;;;;;9.90;5.93;;;;;;;19.12;73.80;101419.56;5020966;28;20037;-79
2022/09/06 04:56:47;;;;;;;8.88;6.18;;;;;;;19.10;73.94;101430.31;5054702;28;20052;-79
2022/09/06 04:59:12;;;;;;;11.10;6.28;;;;;;;19.00;74.58;101415.25;5055038;28;20139;-79
2022/09/06 05:01:37;;;;;;;10.68;6.22;;;;;;;19.00;74.53;101418.81;5055501;28;20033;-78
2022/09/06 05:04:02;;;;;;;8.13;6.20;;;;;;;18.96;74.43;101414.41;5037373;28;20033;-79
2022/09/06 05:06:28;;;;;;;10.13;6.65;;;;;;;18.97;74.09;101417.97;5055366;28;20024;-79
2022/09/06 05:08:53;;;;;;;7.22;6.13;;;;;;;19.00;74.02;101416.13;5054816;28;20489;-79
2022/09/06 05:11:19;;;;;;;10.05;6.53;;;;;;;19.05;74.12;101425.91;5055318;28;20033;-79
2022/09/06 05:13:45;;;;;;;8.98;6.28;;;;;;;19.04;73.91;101430.38;5054703;28;20117;-79
2022/09/06 05:16:11;;;;;;;8.55;6.28;;;;;;;19.07;73.47;101430.34;5055210;28;20033;-79
2022/09/06 05:18:36;;;;;;;8.65;6.07;;;;;;;19.21;73.55;101422.97;5037030;28;20067;-78
2022/09/06 05:21:02;;;;;;;8.57;6.38;;;;;;;19.32;72.66;101420.13;5054838;28;20033;-78
2022/09/06 05:23:27;;;;;;;8.13;6.28;;;;;;;19.30;71.52;101431.78;5055231;28;20079;-79
2022/09/06 05:25:53;;;;;;;8.27;6.40;;;;;;;19.37;72.27;101428.09;5054765;28;20037;-79
2022/09/06 05:28:19;;;;;;;8.05;6.60;;;;;;;19.42;72.51;101440.50;5037502;28;20352;-79
2022/09/06 05:30:45;;;;;;;8.63;5.93;;;;;;;19.58;71.64;101429.53;5054665;28;20040;-79
2022/09/06 05:33:12;;;;;;;10.10;6.32;;;;;;;19.73;71.27;101431.97;5054448;28;20033;-79
2022/09/06 05:35:38;;;;;;;8.05;6.38;;;;;;;19.74;71.16;101431.97;5054418;28;20470;-79
2022/09/06 05:38:03;;;;;;;8.50;6.03;;;;;;;19.77;70.93;101434.56;5055092;28;20033;-79
2022/09/06 05:40:28;;;;;;;7.40;6.00;;;;;;;19.80;70.98;101433.63;5054996;28;20041;-79
2022/09/06 05:42:54;;;;;;;9.48;6.35;;;;;;;19.75;71.40;101435.53;5055098;28;20037;-79
2022/09/06 05:45:19;;;;;;;10.98;6.43;;;;;;;19.75;71.59;101439.09;5054176;28;20120;-78
2022/09/06 05:47:44;;;;;;;9.82;6.60;;;;;;;19.69;71.95;101441.84;5054147;28;20102;-79
2022/09/06 05:50:10;;;;;;;7.70;6.30;;;;;;;19.71;71.61;101439.16;5036162;28;20033;-79
2022/09/06 05:52:36;;;;;;;12.32;7.05;;;;;;;19.69;71.72;101433.81;5036584;28;20025;-79
2022/09/06 05:55:03;;;;;;;11.20;6.63;;;;;;;19.80;71.96;101439.00;5054066;28;20124;-79
2022/09/06 05:57:28;;;;;;;9.85;6.70;;;;;;;19.89;71.52;101437.94;5054199;28;20120;-79
2022/09/06 05:59:54;;;;;;;11.60;6.80;;;;;;;20.02;71.35;101431.44;5053872;28;20064;-79
2022/09/06 06:02:22;;;;;;;9.73;7.20;;;;;;;20.01;71.13;101441.28;5053712;28;20490;-80
2022/09/06 06:04:47;;;;;;;9.80;6.57;;;;;;;20.08;70.93;101433.09;5053743;28;20029;-80
2022/09/06 06:07:13;;;;;;;10.50;6.65;;;;;;;20.27;70.62;101435.41;5036925;28;20087;-79
2022/09/06 06:09:39;;;;;;;9.82;7.20;;;;;;;20.50;70.95;101431.41;5054762;28;20063;-79
2022/09/06 06:12:05;;;;;;;9.35;6.47;;;;;;;20.74;69.00;101443.44;5053994;28;20043;-79
2022/09/06 06:14:31;;;;;;;9.32;6.47;;;;;;;20.70;68.38;101437.25;5036246;28;20127;-78
2022/09/06 06:16:56;;;;;;;11.27;6.85;;;;;;;20.69;68.68;101443.53;5036314;28;20037;-79
2022/09/06 06:19:21;;;;;;;9.13;6.60;;;;;;;20.66;69.22;101435.53;5054373;28;20140;-80
2022/09/06 06:21:47;;;;;;;9.57;6.90;;;;;;;20.80;68.72;101429.84;5054183;28;20029;-80
2022/09/06 06:24:12;;;;;;;11.38;6.63;;;;;;;20.78;68.89;101434.38;5053022;28;20035;-80
2022/09/06 06:26:38;;;;;;;10.55;7.07;;;;;;;20.83;69.40;101435.16;5036279;28;20033;-80
2022/09/06 06:29:06;;;;;;;9.73;7.00;;;;;;;21.10;68.19;101435.44;5054014;28;20036;-79
2022/09/06 06:31:32;;;;;;;8.52;6.57;;;;;;;21.23;67.33;101435.13;5020548;28;20387;-79
2022/09/06 06:33:58;;;;;;;9.63;6.57;;;;;;;21.34;66.71;101428.66;5035831;28;20029;-78
2022/09/06 06:36:26;;;;;;;10.30;6.43;;;;;;;21.49;66.71;101423.75;5053657;28;20032;-79
2022/09/06 06:38:54;;;;;;;11.32;7.00;;;;;;;21.61;66.42;101427.94;5053544;28;20031;-79
2022/09/06 06:41:22;;;;;;;9.65;6.57;;;;;;;21.82;66.66;101417.56;5053529;28;20029;-80
2022/09/06 06:43:50;;;;;;;8.60;6.75;;;;;;;21.89;65.76;101421.84;5053674;28;20048;-76
2022/09/06 06:46:17;;;;;;;10.60;6.32;;;;;;;21.86;65.26;101419.22;5035624;28;20364;-80
2022/09/06 06:48:44;;;;;;;8.98;6.30;;;;;;;21.91;65.97;101423.56;5053173;28;20032;-79
2022/09/06 06:51:15;;;;;;;8.20;5.68;;;;;;;22.14;64.80;101419.38;5053424;28;20037;-79
2022/09/06 06:53:41;;;;;;;10.65;6.20;;;;;;;22.08;64.89;101422.22;5053437;28;20473;-79
2022/09/06 06:56:21;;;;;;;10.52;6.30;;;;;;;22.30;64.38;101427.91;5053385;28;20123;-79
2022/09/06 06:58:49;;;;;;;9.15;6.20;;;;;;;22.39;63.61;101424.94;5053393;28;20041;-79
2022/09/06 07:01:15;;;;;;;7.68;6.00;;;;;;;22.54;62.60;101431.72;5053661;28;20029;-80
2022/09/06 07:03:41;;;;;;;9.50;6.18;;;;;;;22.48;62.38;101436.34;5053299;28;20040;-80
2022/09/06 07:06:07;;;;;;;8.93;6.32;;;;;;;22.59;62.61;101433.34;5053363;28;20037;-79
2022/09/06 07:08:33;;;;;;;8.23;5.82;;;;;;;22.68;62.01;101432.19;5054101;28;20352;-80
2022/09/06 07:10:59;;;;;;;8.40;5.57;;;;;;;22.77;61.61;101426.50;5036238;28;20340;-79
2022/09/06 07:13:25;;;;;;;9.23;5.93;;;;;;;22.95;62.27;101419.69;5053537;28;20044;-79
2022/09/06 07:15:50;;;;;;;11.70;6.32;;;;;;;23.09;62.29;101420.16;5053148;28;20029;-79
2022/09/06 07:18:16;;;;;;;8.85;6.55;;;;;;;23.31;61.63;101423.03;5053516;28;20072;-79
2022/09/06 07:20:42;;;;;;;7.90;5.70;;;;;;;23.34;59.69;101412.16;5053229;28;20043;-79
2022/09/06 07:23:07;;;;;;;11.13;6.03;;;;;;;23.20;59.17;101415.28;5053632;28;20454;-79
2022/09/06 07:25:33;;;;;;;10.85;5.72;;;;;;;23.29;61.04;101422.19;5052956;28;20033;-79
2022/09/06 07:28:05;;;;;;;9.75;5.72;;;;;;;23.35;60.04;101423.81;5053690;28;20074;-80
2022/09/06 07:30:36;;;;;;;9.73;5.55;;;;;;;23.48;59.15;101425.16;5035579;28;20123;-80
2022/09/06 07:33:04;;;;;;;9.35;5.72;;;;;;;23.62;58.20;101424.69;5053115;28;20090;-80
2022/09/06 07:35:30;;;;;;;7.38;5.40;;;;;;;23.78;58.42;101417.88;5053433;28;20044;-79
2022/09/06 07:37:57;;;;;;;9.88;5.50;;;;;;;23.88;57.02;101421.13;5056561;28;20397;-80
2022/09/06 07:40:25;;;;;;;9.50;5.60;;;;;;;23.86;56.45;101437.38;5056807;28;20033;-80
2022/09/06 07:42:51;;;;;;;9.80;5.60;;;;;;;23.95;57.68;101422.69;5038965;28;20036;-80
2022/09/06 07:45:17;;;;;;;8.38;5.30;;;;;;;23.93;57.57;101425.41;5056558;28;20041;-80
2022/09/06 07:47:42;;;;;;;8.23;5.57;;;;;;;23.81;58.23;101427.66;5039015;28;20057;-80
2022/09/06 07:50:08;;;;;;;7.60;5.43;;;;;;;23.73;58.08;101420.72;5056689;28;20437;-80
2022/09/06 07:52:33;;;;;;;10.13;5.35;;;;;;;23.85;57.94;101432.88;5056617;28;20425;-80
2022/09/06 07:54:59;;;;;;;8.38;5.22;;;;;;;23.85;57.27;101422.09;5056567;28;20033;-80
2022/09/06 07:57:24;;;;;;;11.63;5.50;;;;;;;24.04;58.36;101414.25;5057316;28;20052;-81
2022/09/06 07:59:50;;;;;;;8.80;5.40;;;;;;;24.41;56.88;101421.91;5038712;28;20029;-81
2022/09/06 08:02:16;;;;;;;8.70;5.82;;;;;;;24.49;55.74;101414.38;5056682;28;20037;-80
2022/09/06 08:04:42;;;;;;;10.50;5.20;;;;;;;24.74;55.31;101411.59;5056555;28;20041;-81
2022/09/06 08:07:07;;;;;;;10.13;5.40;;;;;;;24.93;54.54;101400.97;5056354;28;20112;-81
2022/09/06 08:09:33;;;;;;;9.85;5.13;;;;;;;25.12;54.29;101405.63;5056028;28;20386;-81
2022/09/06 08:11:58;;;;;;;6.63;4.70;;;;;;;25.24;53.33;101402.44;5056511;28;20033;-80
2022/09/06 08:14:24;;;;;;;7.80;5.10;;;;;;;25.35;52.57;101400.19;5056185;28;20483;-80
2022/09/06 08:16:49;;;;;;;6.95;4.78;;;;;;;25.44;52.20;101398.91;5056197;28;20517;-80
2022/09/06 08:19:15;;;;;;;8.25;4.40;;;;;;;25.51;52.31;101402.22;5022485;28;20041;-80
2022/09/06 08:21:40;;;;;;;12.15;4.40;;;;;;;25.54;51.50;101402.09;5038310;28;20060;-80
2022/09/06 08:24:08;;;;;;;9.48;4.20;;;;;;;25.71;51.85;101400.41;5056076;28;20063;-80
2022/09/06 08:26:39;;;;;;;8.43;4.50;;;;;;;25.81;52.05;101405.47;5055797;28;20581;-80
2022/09/06 08:29:06;;;;;;;12.13;4.55;;;;;;;25.90;51.18;101405.03;5055994;28;20037;-80
2022/09/06 08:31:33;;;;;;;8.77;4.07;;;;;;;25.84;50.45;101406.22;5055851;28;20472;-80
2022/09/06 08:34:00;;;;;;;4.85;3.90;;;;;;;25.62;50.33;101403.53;5055561;28;20040;-80
2022/09/06 08:36:28;;;;;;;6.03;4.00;;;;;;;25.61;51.25;101403.56;5055676;28;20047;-80
2022/09/06 08:38:54;;;;;;;6.25;3.72;;;;;;;25.78;52.43;101408.28;5038344;28;20028;-80
2022/09/06 08:41:26;;;;;;;6.13;3.95;;;;;;;25.87;52.25;101421.44;5055665;28;20091;-80
2022/09/06 08:43:55;;;;;;;8.10;3.40;;;;;;;26.02;50.38;101407.22;5055806;28;20021;-80
2022/09/06 08:46:27;;;;;;;5.53;3.50;;;;;;;25.96;50.27;101410.22;5055521;28;20063;-80
2022/09/06 08:48:53;;;;;;;6.07;2.80;;;;;;;25.70;50.23;101390.53;5055044;28;20028;-80
2022/09/06 08:51:35;;;;;;;7.88;2.80;;;;;;;25.56;49.87;101394.78;5055087;28;20390;-80
2022/09/06 08:54:05;;;;;;;;;;;;;;;25.84;49.49;101397.22;5056267;28;20040;-80
2022/09/06 08:56:41;;;;;;;8.13;2.63;;;;;;;25.69;48.79;101404.13;5037164;28;20355;-80
2022/09/06 08:59:12;;;;;;;4.90;2.40;;;;;;;25.70;49.70;101395.97;5055937;28;20056;-80
2022/09/06 09:02:02;;;;;;;3.83;2.77;;;;;;;25.92;48.07;101392.34;5055193;28;20025;-80
2022/09/06 09:04:30;;;;;;;7.32;2.80;;;;;;;25.74;49.13;101396.72;5055000;28;20502;-80
2022/09/06 09:07:34;;;;;;;5.65;2.75;;;;;;;26.02;49.69;101390.97;5055470;28;20039;-80
2022/09/06 09:10:05;;;;;;;5.88;2.80;;;;;;;26.56;47.98;101407.50;5044114;28;20555;-80
2022/09/06 09:12:33;;;;;;;5.57;2.70;;;;;;;26.75;47.95;101394.81;5055374;28;20048;-80
2022/09/06 09:15:07;;;;;;;11.05;2.85;;;;;;;26.71;46.95;101396.78;5055649;28;20033;-81
2022/09/06 09:17:36;;;;;;;6.53;2.72;;;;;;;26.80;47.45;101386.47;5055352;28;20363;-80
2022/09/06 09:20:02;;;;;;;8.07;3.08;;;;;;;26.71;48.31;101387.78;5055292;28;20040;-80
2022/09/06 09:22:27;;;;;;;5.35;3.10;;;;;;;26.69;48.20;101385.16;5055224;28;20040;-80
2022/09/06 09:24:56;;;;;;;6.75;2.90;;;;;;;27.25;47.47;101380.66;5037034;28;20063;-80
2022/09/06 09:27:25;;;;;;;6.15;3.00;;;;;;;27.39;46.31;101388.97;5054857;28;20040;-80
2022/09/06 09:29:53;;;;;;;5.53;2.70;;;;;;;27.48;45.93;101384.03;5054829;28;20024;-80
2022/09/06 09:32:39;;;;;;;7.13;2.63;;;;;;;27.29;45.86;101384.09;5054661;28;20383;-80
2022/09/06 09:35:32;;;;;;;9.07;2.70;;;;;;;27.32;45.92;101383.91;5054727;28;20116;-80
2022/09/06 09:38:06;;;;;;;11.07;3.00;;;;;;;27.44;45.54;101386.00;5054753;28;20486;-81
2022/09/06 09:40:39;;;;;;;5.80;2.85;;;;;;;27.62;45.72;101384.16;5054587;28;20033;-81
2022/09/06 09:43:45;;;;;;;7.93;2.92;;;;;;;27.68;45.09;101389.31;5036869;28;20033;-81
2022/09/06 09:46:22;;;;;;;6.05;2.92;;;;;;;27.57;45.46;101394.41;4999402;28;20095;-81
2022/09/06 09:49:06;;;;;;;7.43;2.72;;;;;;;27.83;45.60;101384.91;5054400;28;20032;-81
2022/09/06 09:51:43;;;;;;;5.30;2.88;;;;;;;27.97;45.52;101387.81;5037011;28;20477;-81
2022/09/06 09:54:11;;;;;;;7.20;2.72;;;;;;;28.27;43.95;101385.28;5055109;28;20366;-81
2022/09/06 09:56:52;;;;;;;5.22;2.70;;;;;;;28.72;43.47;101390.97;5054050;28;20053;-81
2022/09/06 09:59:42;;;;;;;6.43;2.95;;;;;;;28.90;43.40;101376.31;5053442;28;20418;-81
2022/09/06 10:02:30;;;;;;;9.18;2.83;;;;;;;28.87;43.47;101374.66;5036455;28;20087;-81
2022/09/06 10:05:02;;;;;;;6.88;2.92;;;;;;;28.96;42.30;101378.72;5054100;28;20036;-81
2022/09/06 10:07:28;;;;;;;7.28;2.90;;;;;;;28.98;43.52;101371.34;5054815;28;20074;-81
2022/09/06 10:10:06;;;;;;;6.88;2.85;;;;;;;29.05;42.43;101369.16;5054092;28;20382;-81
2022/09/06 10:12:35;;;;;;;11.85;3.10;;;;;;;29.35;41.79;101372.78;5053978;28;20029;-81
2022/09/06 10:15:01;;;;;;;8.00;3.30;;;;;;;29.50;42.27;101372.81;5036167;28;20032;-81
2022/09/06 10:17:31;;;;;;;7.88;3.28;;;;;;;29.41;41.26;101379.72;5054522;28;20029;-81
2022/09/06 10:20:08;;;;;;;7.85;3.00;;;;;;;29.12;41.36;101376.88;5053937;28;20028;-82
2022/09/06 10:22:58;;;;;;;7.13;2.78;;;;;;;29.64;41.39;101386.53;5053700;28;20035;-81
2022/09/06 10:25:24;;;;;;;5.75;2.70;;;;;;;29.82;40.68;101390.88;5054576;28;20032;-81
2022/09/06 10:28:17;;;;;;;11.40;3.08;;;;;;;29.75;41.45;101391.31;5054067;28;20025;-81
2022/09/06 10:31:08;;;;;;;10.25;2.90;;;;;;;29.64;40.38;101390.16;5036463;28;20037;-81
2022/09/06 10:33:40;;;;;;;9.85;3.33;;;;;;;29.49;41.08;101396.47;5053778;28;20063;-81
2022/09/06 10:36:06;;;;;;;9.13;3.00;;;;;;;29.55;41.10;101406.09;5054032;28;20187;-81
2022/09/06 10:38:52;;;;;;;8.75;3.20;;;;;;;29.75;41.02;101381.31;5053911;28;20036;-81
2022/09/06 10:41:38;;;;;;;7.20;3.13;;;;;;;29.78;41.47;101385.69;5053550;28;20032;-81
2022/09/06 10:44:29;;;;;;;7.47;3.35;;;;;;;29.94;41.12;101381.94;5053471;28;20029;-81
2022/09/06 10:47:07;;;;;;;6.13;3.00;;;;;;;29.99;40.71;101378.94;5054204;28;20053;-81
2022/09/06 10:49:36;;;;;;;4.55;3.08;;;;;;;30.21;39.93;101393.97;5053897;28;20040;-81
2022/09/06 10:52:07;;;;;;;11.95;3.67;;;;;;;30.26;39.48;101380.91;5035955;28;20452;-81
2022/09/06 10:54:36;;;;;;;6.72;3.33;;;;;;;30.29;39.96;101378.88;5053782;28;20037;-81
2022/09/06 10:57:17;;;;;;;5.70;3.40;;;;;;;30.29;39.73;101376.16;5052992;28;20045;-81
2022/09/06 10:59:54;;;;;;;7.97;3.55;;;;;;;30.57;39.88;101372.50;5035599;28;20025;-81
2022/09/06 11:02:32;;;;;;;7.50;3.30;;;;;;;30.73;40.00;101377.88;5036108;28;20070;-82
2022/09/06 11:05:06;;;;;;;8.80;3.70;;;;;;;30.95;39.03;101371.00;5053656;28;20029;-82
2022/09/06 11:07:36;;;;;;;8.48;3.60;;;;;;;31.07;38.76;101371.06;5054204;28;20115;-82
2022/09/06 11:10:01;;;;;;;8.88;3.58;;;;;;;31.42;37.67;101378.75;5054104;28;20060;-82
2022/09/06 11:12:53;;;;;;;9.85;3.60;;;;;;;31.48;37.22;101378.34;5056758;28;20462;-82
2022/09/06 11:15:20;;;;;;;8.07;3.40;;;;;;;31.89;36.15;101388.28;5057625;28;20067;-82
2022/09/06 11:17:59;;;;;;;10.98;3.70;;;;;;;31.75;37.01;101382.88;5057517;28;20036;-82
2022/09/06 11:20:40;;;;;;;7.63;3.55;;;;;;;31.45;36.61;101392.22;5057258;28;20517;-82
2022/09/06 11:23:30;;;;;;;7.82;3.40;;;;;;;31.59;37.56;101399.47;5057501;28;20041;-82
2022/09/06 11:26:28;;;;;;;7.07;4.00;;;;;;;31.93;36.71;101400.75;5057481;28;20115;-82
2022/09/06 11:29:27;;;;;;;11.18;3.70;;;;;;;32.30;36.23;101403.63;5039504;28;20032;-82
2022/09/06 11:32:23;;;;;;;7.75;3.70;;;;;;;32.50;35.19;101410.41;5056655;28;20044;-82
2022/09/06 11:34:57;;;;;;;7.18;3.83;;;;;;;32.80;34.99;101408.16;5057292;28;20033;-82
2022/09/06 11:37:58;;;;;;;11.70;3.80;;;;;;;32.97;34.90;101395.09;5056937;28;20108;-82
2022/09/06 11:40:28;;;;;;;8.65;3.60;;;;;;;32.89;34.44;101403.84;5057409;28;20078;-82